createdAt,value
2017-08-11T00:00:54.480Z,9.57
2017-08-11T00:03:21.916Z,8.50
2017-08-11T00:05:49.823Z,9.93
2017-08-11T00:08:17.380Z,8.43
2017-08-11T00:10:44.796Z,11.10
2017-08-11T00:13:12.996Z,7.90
2017-08-11T00:15:41.198Z,9.07
2017-08-11T00:18:08.636Z,9.33
2017-08-11T00:20:36.068Z,9.13
2017-08-11T00:23:03.496Z,9.33
2017-08-11T00:25:30.932Z,8.80
2017-08-11T00:27:58.361Z,8.43
2017-08-11T00:30:25.800Z,7.40
2017-08-11T00:32:54.006Z,7.53
2017-08-11T00:35:21.432Z,8.53
2017-08-11T00:37:49.624Z,8.30
2017-08-11T00:40:17.057Z,8.70
2017-08-11T00:42:45.249Z,8.63
2017-08-11T00:45:13.300Z,9.00
2017-08-11T00:47:40.852Z,10.40
2017-08-11T00:50:09.062Z,9.57
2017-08-11T00:52:36.489Z,9.87
2017-08-11T00:55:03.920Z,9.20
2017-08-11T00:57:31.360Z,10.00
2017-08-11T00:59:58.787Z,9.07
2017-08-11T01:02:26.233Z,9.73
2017-08-11T01:04:54.423Z,10.40
2017-08-11T01:07:21.856Z,10.63
2017-08-11T01:09:50.056Z,10.50
2017-08-11T01:12:17.487Z,10.60
2017-08-11T01:14:45.685Z,9.90
2017-08-11T01:17:13.133Z,11.23
2017-08-11T01:19:40.561Z,11.73
2017-08-11T01:22:08.769Z,11.87
2017-08-11T01:24:36.205Z,10.27
2017-08-11T01:27:04.405Z,10.10
2017-08-11T01:29:31.832Z,11.40
2017-08-11T01:32:00.038Z,11.37
2017-08-11T01:34:27.463Z,10.37
2017-08-11T01:36:55.668Z,12.07
2017-08-11T01:39:23.105Z,12.93
2017-08-11T01:41:51.317Z,12.07
2017-08-11T01:44:18.752Z,11.40
2017-08-11T01:46:47.877Z,11.80
2017-08-11T01:49:15.384Z,10.67
2017-08-11T01:51:43.620Z,11.53
2017-08-11T01:54:11.057Z,12.47
2017-08-11T01:56:38.497Z,12.43
2017-08-11T01:59:05.925Z,12.33
2017-08-11T02:01:34.128Z,11.93
2017-08-11T02:04:01.565Z,12.90
2017-08-11T02:06:29.772Z,12.90
2017-08-11T02:08:57.210Z,13.20
2017-08-11T02:11:24.640Z,12.97
2017-08-11T02:13:52.853Z,12.97
2017-08-11T02:16:21.006Z,12.00
2017-08-11T02:18:48.520Z,11.33
2017-08-11T02:21:15.953Z,13.00
2017-08-11T02:23:44.033Z,10.80
2017-08-11T02:26:11.469Z,12.17
2017-08-11T02:28:38.909Z,12.07
2017-08-11T02:31:06.341Z,12.83
2017-08-11T02:33:33.781Z,12.97
2017-08-11T02:36:01.208Z,12.90
2017-08-11T02:38:28.660Z,14.53
2017-08-11T02:40:56.840Z,13.00
2017-08-11T02:43:25.112Z,12.70
2017-08-11T02:45:52.541Z,14.43
2017-08-11T02:48:20.749Z,12.37
2017-08-11T02:50:48.177Z,12.80
2017-08-11T02:53:15.618Z,12.87
2017-08-11T02:55:43.816Z,13.90
2017-08-11T02:58:11.312Z,13.43
2017-08-11T03:00:38.752Z,14.63
2017-08-11T03:03:06.189Z,15.80
2017-08-11T03:05:33.631Z,15.90
2017-08-11T03:08:01.875Z,16.30
2017-08-11T03:10:29.319Z,17.40
2017-08-11T03:12:56.749Z,18.20
2017-08-11T03:15:24.181Z,16.50
2017-08-11T03:17:51.621Z,16.40
2017-08-11T03:20:19.830Z,16.27
2017-08-11T03:22:47.261Z,14.30
2017-08-11T03:25:15.473Z,14.87
2017-08-11T03:27:42.900Z,16.33
2017-08-11T03:30:10.345Z,15.93
2017-08-11T03:32:38.549Z,17.73
2017-08-11T03:35:05.985Z,16.27
2017-08-11T03:37:33.412Z,17.00
2017-08-11T03:40:00.848Z,16.13
2017-08-11T03:42:28.286Z,16.03
2017-08-11T03:44:55.734Z,16.73
2017-08-11T03:47:23.169Z,16.90
2017-08-11T03:49:50.617Z,16.67
2017-08-11T03:52:18.815Z,17.73
2017-08-11T03:54:46.261Z,17.73
2017-08-11T03:57:13.688Z,19.47
2017-08-11T03:59:41.132Z,16.53
2017-08-11T04:02:08.562Z,19.97
2017-08-11T04:04:35.996Z,17.60
2017-08-11T04:07:03.438Z,17.60
2017-08-11T04:09:31.445Z,17.40
2017-08-11T04:11:58.881Z,17.23
2017-08-11T04:14:26.312Z,18.20
2017-08-11T04:16:54.530Z,19.27
2017-08-11T04:19:21.960Z,19.00
2017-08-11T04:21:49.402Z,18.30
2017-08-11T04:24:17.605Z,17.97
2017-08-11T04:26:45.044Z,16.97
2017-08-11T04:29:12.482Z,17.47
2017-08-11T04:31:40.689Z,17.50
2017-08-11T04:34:08.124Z,18.87
2017-08-11T04:36:36.328Z,16.80
2017-08-11T04:39:03.785Z,18.20
2017-08-11T04:41:31.225Z,19.33
2017-08-11T04:43:58.655Z,20.67
2017-08-11T04:46:26.866Z,17.93
2017-08-11T04:48:54.296Z,17.17
2017-08-11T04:51:22.501Z,19.37
2017-08-11T04:53:49.924Z,19.30
2017-08-11T04:56:18.124Z,20.43
2017-08-11T04:58:45.561Z,20.43
2017-08-11T05:01:13.762Z,21.10
2017-08-11T05:03:41.197Z,20.83
2017-08-11T05:06:09.413Z,20.20
2017-08-11T05:08:36.853Z,22.73
2017-08-11T05:11:04.293Z,27.07
2017-08-11T05:13:32.497Z,25.67
2017-08-11T05:15:59.923Z,26.00
2017-08-11T05:18:27.364Z,27.30
2017-08-11T05:20:55.569Z,25.07
2017-08-11T05:23:23.000Z,23.27
2017-08-11T05:25:51.201Z,28.20
2017-08-11T05:28:18.649Z,25.80
2017-08-11T05:30:46.188Z,24.90
2017-08-11T05:33:14.397Z,24.30
2017-08-11T05:35:41.816Z,27.27
2017-08-11T05:38:10.020Z,25.40
2017-08-11T05:40:37.449Z,26.87
2017-08-11T05:43:05.664Z,25.97
2017-08-11T05:45:33.176Z,26.23
2017-08-11T05:48:01.388Z,23.90
2017-08-11T05:50:28.812Z,22.50
2017-08-11T05:52:57.021Z,24.20
2017-08-11T05:55:24.461Z,22.83
2017-08-11T05:57:51.898Z,22.17
2017-08-11T06:00:20.104Z,22.47
2017-08-11T06:02:47.532Z,21.70
2017-08-11T06:05:15.732Z,24.00
2017-08-11T06:07:43.194Z,24.80
2017-08-11T06:10:10.616Z,23.40
2017-08-11T06:12:38.889Z,25.30
2017-08-11T06:15:06.356Z,23.83
2017-08-11T06:17:34.556Z,23.30
2017-08-11T06:20:01.993Z,24.77
2017-08-11T06:22:31.145Z,28.23
2017-08-11T06:24:58.584Z,25.17
2017-08-11T06:27:27.016Z,26.67
2017-08-11T06:29:56.319Z,27.13
2017-08-11T06:32:24.932Z,24.23
2017-08-11T06:34:52.378Z,24.57
2017-08-11T06:37:20.582Z,24.10
2017-08-11T06:39:48.037Z,25.07
2017-08-11T06:42:15.465Z,25.10
2017-08-11T06:44:42.901Z,24.40
2017-08-11T06:47:11.103Z,24.80
2017-08-11T06:49:38.541Z,26.53
2017-08-11T06:52:06.808Z,22.90
2017-08-11T06:54:35.012Z,24.03
2017-08-11T06:57:02.504Z,25.13
2017-08-11T06:59:29.948Z,26.53
2017-08-11T07:01:57.580Z,27.20
2017-08-11T07:04:25.024Z,25.87
2017-08-11T07:06:53.220Z,27.60
2017-08-11T07:09:20.705Z,25.70
2017-08-11T07:11:48.139Z,30.13
2017-08-11T07:14:15.569Z,30.07
2017-08-11T07:16:43.768Z,29.47
2017-08-11T07:19:11.228Z,28.60
2017-08-11T07:21:38.676Z,30.50
2017-08-11T07:24:06.105Z,29.77
2017-08-11T07:26:34.393Z,31.20
2017-08-11T07:29:02.589Z,29.77
2017-08-11T07:31:30.641Z,29.93
2017-08-11T07:33:58.839Z,28.23
2017-08-11T07:36:27.550Z,28.13
2017-08-11T07:38:55.051Z,29.43
2017-08-11T07:41:24.269Z,29.67
2017-08-11T07:43:53.421Z,28.00
2017-08-11T07:46:20.848Z,31.10
2017-08-11T07:48:48.286Z,28.13
2017-08-11T07:51:15.728Z,27.80
2017-08-11T07:53:43.936Z,31.67
2017-08-11T07:56:11.378Z,30.47
2017-08-11T07:58:38.805Z,28.00
2017-08-11T08:01:07.013Z,29.00
2017-08-11T08:03:34.513Z,31.70
2017-08-11T08:06:01.940Z,29.30
2017-08-11T08:08:29.372Z,30.13
2017-08-11T08:10:56.808Z,31.93
2017-08-11T08:13:25.057Z,31.90
2017-08-11T08:15:52.496Z,33.70
2017-08-11T08:18:19.925Z,30.80
2017-08-11T08:20:47.360Z,31.20
2017-08-11T08:23:15.568Z,29.40
2017-08-11T08:25:43.001Z,29.27
2017-08-11T08:28:10.436Z,30.07
2017-08-11T08:30:38.456Z,29.47
2017-08-11T08:33:05.902Z,27.50
2017-08-11T08:35:33.338Z,28.53
2017-08-11T08:38:00.780Z,29.83
2017-08-11T08:40:28.984Z,28.17
2017-08-11T08:42:56.421Z,27.63
2017-08-11T08:45:24.627Z,27.60
2017-08-11T08:47:52.061Z,27.63
2017-08-11T08:50:19.492Z,28.07
2017-08-11T08:52:47.701Z,29.47
2017-08-11T08:55:15.138Z,30.47
2017-08-11T08:57:43.341Z,28.57
2017-08-11T09:00:10.777Z,29.33
2017-08-11T09:02:38.271Z,31.10
2017-08-11T09:05:05.681Z,29.20
2017-08-11T09:07:33.900Z,29.60
2017-08-11T09:10:01.337Z,27.57
2017-08-11T09:12:28.977Z,28.83
2017-08-11T09:14:57.225Z,29.27
2017-08-11T09:17:24.680Z,27.37
2017-08-11T09:19:52.108Z,24.47
2017-08-11T09:22:19.660Z,24.60
2017-08-11T09:24:59.125Z,23.47
2017-08-11T09:27:38.549Z,23.83
2017-08-11T09:30:17.952Z,20.37
2017-08-11T09:32:57.428Z,19.30
2017-08-11T09:35:45.504Z,19.57
2017-08-11T09:38:13.712Z,18.50
2017-08-11T09:40:41.154Z,16.27
2017-08-11T09:43:09.365Z,15.37
2017-08-11T09:45:36.809Z,11.50
2017-08-11T09:48:04.241Z,12.57
2017-08-11T09:50:31.705Z,12.23
2017-08-11T09:52:59.676Z,11.20
2017-08-11T09:55:27.877Z,11.00
2017-08-11T09:57:55.305Z,10.03
2017-08-11T10:00:22.752Z,10.77
2017-08-11T10:02:50.948Z,9.93
2017-08-11T10:05:18.389Z,10.00
2017-08-11T10:07:45.836Z,9.80
2017-08-11T10:10:14.044Z,8.40
2017-08-11T10:12:41.468Z,7.27
2017-08-11T10:15:09.673Z,6.67
2017-08-11T10:17:37.100Z,3.57
2017-08-11T10:20:05.297Z,4.00
2017-08-11T10:22:32.729Z,4.60
2017-08-11T10:25:00.924Z,2.73
2017-08-11T10:27:28.348Z,3.67
2017-08-11T10:29:55.801Z,2.73
2017-08-11T10:32:23.225Z,3.30
2017-08-11T10:34:50.654Z,3.47
2017-08-11T10:37:18.089Z,3.90
2017-08-11T10:39:45.515Z,2.57
2017-08-11T10:42:12.949Z,3.03
2017-08-11T10:44:40.378Z,2.60
2017-08-11T10:47:09.787Z,2.20
2017-08-11T10:49:37.425Z,2.33
2017-08-11T10:52:05.684Z,2.63
2017-08-11T10:54:33.113Z,2.33
2017-08-11T10:57:00.941Z,2.10
2017-08-11T10:59:28.356Z,2.13
2017-08-11T11:01:55.789Z,2.07
2017-08-11T11:04:23.212Z,2.07
2017-08-11T11:06:50.643Z,2.33
2017-08-11T11:09:18.847Z,1.97
2017-08-11T11:11:46.280Z,1.93
2017-08-11T11:14:14.472Z,2.10
2017-08-11T11:16:41.909Z,1.90
2017-08-11T11:19:10.108Z,2.07
2017-08-11T11:21:37.545Z,1.60
2017-08-11T11:24:05.744Z,1.93
2017-08-11T11:26:33.170Z,2.10
2017-08-11T11:29:01.369Z,1.67
2017-08-11T11:31:28.793Z,1.80
2017-08-11T11:33:56.228Z,3.00
2017-08-11T11:36:23.665Z,1.93
2017-08-11T11:38:51.096Z,2.20
2017-08-11T11:41:18.541Z,1.90
2017-08-11T11:43:46.728Z,1.77
2017-08-11T11:46:14.152Z,2.00
2017-08-11T11:48:42.357Z,1.90
2017-08-11T11:51:09.784Z,2.33
2017-08-11T11:53:37.985Z,2.03
2017-08-11T11:56:05.419Z,2.00
2017-08-11T11:58:33.616Z,1.80
2017-08-11T12:01:01.041Z,1.90
2017-08-11T12:03:29.241Z,1.73
2017-08-11T12:05:56.709Z,1.73
2017-08-11T12:08:24.140Z,1.50
2017-08-11T12:10:52.343Z,1.67
2017-08-11T12:13:19.778Z,1.43
2017-08-11T12:15:47.972Z,1.87
2017-08-11T12:18:15.400Z,1.40
2017-08-11T12:20:43.597Z,1.50
2017-08-11T12:23:11.025Z,2.07
2017-08-11T12:25:39.230Z,2.10
2017-08-11T12:28:06.652Z,1.90
2017-08-11T12:30:34.865Z,2.00
2017-08-11T12:33:02.297Z,1.40
2017-08-11T12:35:30.498Z,1.40
2017-08-11T12:37:57.921Z,1.60
2017-08-11T12:40:25.349Z,1.80
2017-08-11T12:42:52.779Z,1.80
2017-08-11T12:45:20.218Z,2.07
2017-08-11T12:47:47.645Z,2.43
2017-08-11T12:50:15.864Z,2.17
2017-08-11T12:52:43.284Z,2.20
2017-08-11T12:55:11.481Z,2.83
2017-08-11T12:57:38.909Z,2.07
2017-08-11T13:00:07.109Z,2.30
2017-08-11T13:02:34.537Z,2.43
2017-08-11T13:05:02.732Z,3.20
2017-08-11T13:07:30.163Z,2.30
2017-08-11T13:09:57.597Z,2.90
2017-08-11T13:12:25.208Z,2.57
2017-08-11T13:14:52.657Z,3.27
2017-08-11T13:17:20.852Z,2.67
2017-08-11T13:19:48.284Z,4.10
2017-08-11T13:22:16.477Z,3.63
2017-08-11T13:24:43.908Z,3.10
2017-08-11T13:27:12.113Z,4.00
2017-08-11T13:29:39.548Z,3.70
2017-08-11T13:32:07.740Z,4.40
2017-08-11T13:34:35.170Z,4.00
2017-08-11T13:37:02.601Z,3.80
2017-08-11T13:39:30.016Z,4.17
2017-08-11T13:41:59.414Z,4.00
2017-08-11T13:44:27.589Z,5.23
2017-08-11T13:46:55.020Z,3.80
2017-08-11T13:49:23.220Z,4.50
2017-08-11T13:51:50.653Z,3.63
2017-08-11T13:54:18.856Z,4.20
2017-08-11T13:56:46.376Z,4.57
2017-08-11T13:59:14.574Z,4.30
2017-08-11T14:01:42.014Z,3.77
2017-08-11T14:04:09.461Z,4.00
2017-08-11T14:06:37.660Z,4.90
2017-08-11T14:09:05.093Z,5.00
2017-08-11T14:11:33.288Z,4.47
2017-08-11T14:14:00.722Z,4.77
2017-08-11T14:16:28.153Z,5.10
2017-08-11T14:18:55.594Z,4.90
2017-08-11T14:21:23.096Z,4.57
2017-08-11T14:23:57.016Z,4.70
2017-08-11T14:26:24.448Z,4.37
2017-08-11T14:28:51.892Z,5.10
2017-08-11T14:31:19.329Z,5.90
2017-08-11T14:33:46.761Z,4.63
2017-08-11T14:36:14.290Z,4.80
2017-08-11T14:38:42.490Z,5.20
2017-08-11T14:41:09.917Z,5.07
2017-08-11T14:43:37.352Z,6.30
2017-08-11T14:46:04.784Z,5.27
2017-08-11T14:48:32.213Z,5.30
2017-08-11T14:50:59.649Z,4.83
2017-08-11T14:53:27.852Z,4.67
2017-08-11T14:55:55.284Z,6.17
2017-08-11T14:58:23.479Z,6.90
2017-08-11T15:00:50.912Z,5.77
2017-08-11T15:03:19.112Z,6.67
2017-08-11T15:05:46.552Z,7.00
2017-08-11T15:08:14.752Z,7.83
2017-08-11T15:10:42.176Z,7.90
2017-08-11T15:13:10.464Z,8.60
2017-08-11T15:15:38.658Z,7.53
2017-08-11T15:18:06.089Z,7.50
2017-08-11T15:20:34.453Z,6.73
2017-08-11T15:23:01.921Z,7.90
2017-08-11T15:25:30.129Z,7.97
2017-08-11T15:27:57.561Z,8.43
2017-08-11T15:30:25.054Z,7.87
2017-08-11T15:32:52.460Z,7.90
2017-08-11T15:35:20.665Z,9.77
2017-08-11T15:37:48.117Z,8.13
2017-08-11T15:40:16.300Z,9.63
2017-08-11T15:42:43.727Z,8.90
2017-08-11T15:45:11.929Z,9.67
2017-08-11T15:47:39.361Z,8.57
2017-08-11T15:50:06.806Z,11.00
2017-08-11T15:52:34.232Z,9.93
2017-08-11T15:55:01.679Z,10.17
2017-08-11T15:57:29.100Z,9.30
2017-08-11T15:59:56.536Z,10.30
2017-08-11T16:02:24.741Z,10.90
2017-08-11T16:04:52.213Z,10.00
2017-08-11T16:07:19.640Z,12.47
2017-08-11T16:09:47.077Z,10.30
2017-08-11T16:12:14.507Z,9.73
2017-08-11T16:14:41.948Z,11.53
2017-08-11T16:17:09.381Z,12.57
2017-08-11T16:19:36.820Z,11.60
2017-08-11T16:22:05.012Z,11.47
2017-08-11T16:24:32.457Z,12.53
2017-08-11T16:27:00.651Z,11.33
2017-08-11T16:29:28.125Z,12.00
2017-08-11T16:31:55.549Z,13.30
2017-08-11T16:34:22.985Z,13.80
2017-08-11T16:36:51.193Z,14.50
2017-08-11T16:39:18.634Z,14.33
2017-08-11T16:41:46.842Z,16.40
2017-08-11T16:44:15.276Z,16.13
2017-08-11T16:46:43.485Z,15.93
2017-08-11T16:49:10.908Z,14.90
2017-08-11T16:51:39.108Z,15.47
2017-08-11T16:54:06.545Z,15.37
2017-08-11T16:56:34.768Z,17.17
2017-08-11T16:59:02.202Z,15.87
2017-08-11T17:01:29.643Z,16.57
2017-08-11T17:03:57.078Z,18.00
2017-08-11T17:06:24.513Z,17.23
2017-08-11T17:08:51.950Z,16.13
2017-08-11T17:11:19.392Z,15.67
2017-08-11T17:13:46.825Z,16.60
2017-08-11T17:16:15.828Z,16.40
2017-08-11T17:18:43.261Z,17.33
2017-08-11T17:21:11.465Z,16.90
2017-08-11T17:23:38.892Z,16.80
2017-08-11T17:26:07.097Z,16.53
2017-08-11T17:28:34.529Z,15.83
2017-08-11T17:31:02.757Z,17.13
2017-08-11T17:33:30.185Z,16.90
2017-08-11T17:35:57.614Z,17.70
2017-08-11T17:38:25.813Z,16.30
2017-08-11T17:40:53.261Z,16.80
2017-08-11T17:43:20.693Z,17.00
2017-08-11T17:45:48.905Z,16.87
2017-08-11T17:48:16.333Z,14.70
2017-08-11T17:50:43.780Z,16.90
2017-08-11T17:53:11.225Z,15.27
2017-08-11T17:55:38.647Z,15.27
2017-08-11T17:58:06.081Z,15.50
2017-08-11T18:00:33.521Z,15.60
2017-08-11T18:03:01.732Z,18.23
2017-08-11T18:05:29.174Z,17.80
2017-08-11T18:07:56.614Z,15.97
2017-08-11T18:10:24.809Z,15.10
2017-08-11T18:12:52.314Z,16.10
2017-08-11T18:15:19.748Z,16.40
2017-08-11T18:17:47.194Z,16.90
2017-08-11T18:22:38.496Z,17.83
2017-08-11T18:25:06.695Z,16.90
2017-08-11T18:27:34.137Z,15.70
2017-08-11T18:30:02.687Z,16.50
2017-08-11T18:32:30.109Z,16.40
2017-08-11T18:34:57.557Z,15.93
2017-08-11T18:37:25.089Z,15.80
2017-08-11T18:39:52.516Z,16.57
2017-08-11T18:42:20.738Z,16.00
2017-08-11T18:44:48.181Z,16.17
2017-08-11T18:47:15.737Z,15.90
2017-08-11T18:49:43.179Z,15.80
2017-08-11T18:52:11.386Z,17.07
2017-08-11T18:54:38.827Z,17.57
2017-08-11T18:57:06.249Z,15.27
2017-08-11T18:59:34.476Z,15.13
2017-08-11T19:02:01.913Z,16.60
2017-08-11T19:04:29.358Z,16.77
2017-08-11T19:06:57.587Z,17.30
2017-08-11T19:09:25.050Z,17.40
2017-08-11T19:11:52.536Z,17.50
2017-08-11T19:14:20.753Z,18.00
2017-08-11T19:16:48.194Z,18.30
2017-08-11T19:19:15.657Z,17.33
2017-08-11T19:21:43.090Z,16.30
2017-08-11T19:24:11.331Z,18.87
2017-08-11T19:26:38.760Z,19.40
2017-08-11T19:29:06.195Z,17.97
2017-08-11T19:31:33.637Z,19.60
2017-08-11T19:34:01.073Z,18.10
2017-08-11T19:36:28.531Z,19.70
2017-08-11T19:38:56.742Z,19.13
2017-08-11T19:41:24.176Z,20.77
2017-08-11T19:43:52.384Z,20.07
2017-08-11T19:46:19.826Z,18.03
2017-08-11T19:49:09.386Z,19.20
2017-08-11T19:51:37.597Z,19.30
2017-08-11T19:54:05.069Z,22.63
2017-08-11T19:56:32.527Z,21.17
2017-08-11T19:59:00.025Z,22.43
2017-08-11T20:01:28.253Z,24.70
2017-08-11T20:03:55.689Z,24.73
2017-08-11T20:06:23.137Z,23.90
2017-08-11T20:08:50.577Z,22.33
2017-08-11T20:11:18.877Z,24.83
2017-08-11T20:13:46.322Z,23.17
2017-08-11T20:16:13.752Z,24.30
2017-08-11T20:18:42.037Z,25.03
2017-08-11T20:21:09.469Z,27.07
2017-08-11T20:23:36.956Z,26.70
2017-08-11T20:26:05.209Z,27.37
2017-08-11T20:28:32.650Z,28.03
2017-08-11T20:31:00.086Z,26.57
2017-08-11T20:33:27.536Z,28.80
2017-08-11T20:35:54.969Z,27.53
2017-08-11T20:38:24.267Z,31.07
2017-08-11T20:40:52.457Z,34.33
2017-08-11T20:43:19.888Z,30.37
2017-08-11T20:45:48.188Z,33.60
2017-08-11T20:48:15.640Z,29.20
2017-08-11T20:50:43.083Z,31.03
2017-08-11T20:53:11.385Z,33.50
2017-08-11T20:55:38.842Z,33.47
2017-08-11T20:58:06.368Z,32.40
2017-08-11T21:00:34.582Z,30.63
2017-08-11T21:03:02.013Z,30.27
2017-08-11T21:05:29.458Z,32.00
2017-08-11T21:07:57.736Z,31.17
2017-08-11T21:10:25.164Z,30.03
2017-08-11T21:12:52.640Z,31.03
2017-08-11T21:15:20.076Z,30.47
2017-08-11T21:17:47.508Z,31.30
2017-08-11T21:20:15.020Z,30.80
2017-08-11T21:22:43.222Z,30.27
2017-08-11T21:25:10.657Z,30.10
2017-08-11T21:27:38.862Z,29.70
2017-08-11T21:30:06.301Z,30.97
2017-08-11T21:32:33.733Z,29.47
2017-08-11T21:35:01.178Z,29.87
2017-08-11T21:37:28.628Z,28.03
2017-08-11T21:39:56.061Z,26.90
2017-08-11T21:42:23.507Z,27.50
2017-08-11T21:44:50.945Z,30.50
2017-08-11T21:47:18.409Z,28.10
2017-08-11T21:49:45.841Z,29.50
2017-08-11T21:52:14.056Z,28.07
2017-08-11T21:54:41.488Z,29.40
2017-08-11T21:57:08.933Z,28.33
2017-08-11T21:59:36.368Z,27.13
2017-08-11T22:02:03.836Z,26.23
2017-08-11T22:04:32.041Z,24.93
2017-08-11T22:06:59.485Z,26.40
2017-08-11T22:09:26.920Z,30.20
2017-08-11T22:11:55.127Z,26.57
2017-08-11T22:14:22.557Z,26.43
2017-08-11T22:16:50.773Z,25.23
2017-08-11T22:19:18.212Z,26.37
2017-08-11T22:21:45.640Z,25.00
2017-08-11T22:24:13.849Z,25.03
2017-08-11T22:26:41.280Z,23.17
2017-08-11T22:29:09.492Z,25.33
2017-08-11T22:31:36.924Z,24.53
2017-08-11T22:34:04.369Z,22.97
2017-08-11T22:36:32.655Z,25.73
2017-08-11T22:39:00.852Z,24.70
2017-08-11T22:41:28.276Z,22.80
2017-08-11T22:43:56.482Z,23.63
2017-08-11T22:46:23.921Z,23.83
2017-08-11T22:48:51.359Z,24.50
2017-08-11T22:51:19.553Z,23.80
2017-08-11T22:53:47.138Z,23.03
2017-08-11T22:56:14.564Z,22.20
2017-08-11T22:58:42.005Z,21.67
2017-08-11T23:01:10.209Z,24.40
2017-08-11T23:03:37.646Z,24.03
2017-08-11T23:06:05.852Z,21.93
2017-08-11T23:08:33.277Z,21.50
2017-08-11T23:11:01.476Z,21.87
2017-08-11T23:13:28.910Z,22.60
2017-08-11T23:15:57.118Z,21.93
2017-08-11T23:18:24.539Z,24.10
2017-08-11T23:20:51.977Z,22.93
2017-08-11T23:23:20.189Z,21.10
2017-08-11T23:25:47.641Z,22.80
2017-08-11T23:28:15.843Z,21.10
2017-08-11T23:30:43.281Z,23.47
2017-08-11T23:33:10.713Z,21.50
2017-08-11T23:35:38.928Z,23.80
2017-08-11T23:38:06.365Z,22.87
2017-08-11T23:40:33.805Z,21.80
2017-08-11T23:43:02.000Z,25.40
2017-08-11T23:45:29.446Z,22.97
2017-08-11T23:47:56.877Z,24.97
2017-08-11T23:50:25.086Z,24.43
2017-08-11T23:52:52.525Z,24.77
2017-08-11T23:55:20.726Z,23.53
2017-08-11T23:57:48.165Z,24.47
